Time;durP1;ratioP1;P1;durP2;ratioP2;P2;SDS_P1;SDS_P2;PMS_P1;PMS_P2;Temp;Humidity;BMP_temperature;BMP_pressure;BME280_temperature;BME280_humidity;BME280_pressure;Samples;Min_cycle;Max_cycle;Signal;HPM_P1;HPM_P2
2023/02/04 00:02:23;;;;;;;0.60;0.60;;;6.70;99.90;;;;;;5109145;27;20302;-66
2023/02/04 00:04:50;;;;;;;0.77;0.77;;;6.70;99.90;;;;;;5108294;27;20204;-66
2023/02/04 00:07:17;;;;;;;0.40;0.38;;;6.70;99.90;;;;;;5108585;27;20222;-66
2023/02/04 00:09:46;;;;;;;0.65;0.65;;;6.60;99.90;;;;;;5108303;28;20234;-66
2023/02/04 00:12:13;;;;;;;0.40;0.40;;;6.60;99.90;;;;;;5121832;27;20229;-66
2023/02/04 00:14:40;;;;;;;0.40;0.40;;;6.60;99.90;;;;;;5110398;27;20197;-66
2023/02/04 00:17:09;;;;;;;0.77;0.70;;;6.70;99.90;;;;;;5125942;27;20304;-66
2023/02/04 00:19:37;;;;;;;0.68;0.68;;;6.60;99.90;;;;;;5119026;27;20202;-66
2023/02/04 00:22:05;;;;;;;1.35;0.93;;;6.60;99.90;;;;;;5115311;27;20213;-66
2023/02/04 00:24:32;;;;;;;0.77;0.77;;;6.70;99.90;;;;;;5128027;27;20291;-66
2023/02/04 00:26:59;;;;;;;1.85;0.70;;;6.60;99.90;;;;;;5128799;27;20725;-66
2023/02/04 00:29:26;;;;;;;0.60;0.60;;;7.30;99.90;;;;;;5117920;27;20562;-66
2023/02/04 00:31:53;;;;;;;0.68;0.68;;;6.70;99.90;;;;;;5121897;27;20225;-67
2023/02/04 00:34:19;;;;;;;0.52;0.52;;;6.70;99.90;;;;;;5111020;27;20198;-66
2023/02/04 00:36:48;;;;;;;0.68;0.50;;;6.70;99.90;;;;;;5108177;27;20688;-66
2023/02/04 00:39:15;;;;;;;0.85;0.60;;;6.70;99.90;;;;;;5127633;27;20193;-66
2023/02/04 00:41:41;;;;;;;1.98;1.23;;;6.70;99.90;;;;;;5119225;27;20221;-66
2023/02/04 00:44:08;;;;;;;1.13;1.00;;;6.70;99.90;;;;;;5110938;27;20205;-67
2023/02/04 00:46:35;;;;;;;1.02;0.93;;;6.70;99.90;;;;;;5122238;27;20217;-66
2023/02/04 00:49:02;;;;;;;0.88;0.63;;;6.70;99.90;;;;;;5127590;27;20201;-66
2023/02/04 00:51:28;;;;;;;0.40;0.32;;;6.60;99.90;;;;;;5109821;27;20220;-66
2023/02/04 00:53:56;;;;;;;1.17;1.08;;;6.70;99.90;;;;;;5108109;27;20202;-66
2023/02/04 00:56:23;;;;;;;0.40;0.20;;;6.80;99.90;;;;;;5106958;27;20601;-66
2023/02/04 00:58:50;;;;;;;1.05;0.77;;;6.40;99.90;;;;;;5110923;27;20738;-66
2023/02/04 01:01:17;;;;;;;1.20;0.93;;;6.70;99.90;;;;;;5127592;27;20239;-66
2023/02/04 01:03:44;;;;;;;0.65;0.63;;;6.90;99.90;;;;;;5119696;27;20556;-67
2023/02/04 01:06:12;;;;;;;1.17;1.17;;;6.70;99.90;;;;;;5127770;27;20262;-66
2023/02/04 01:08:39;;;;;;;0.60;0.50;;;6.70;99.90;;;;;;5127465;27;20201;-66
2023/02/04 01:11:08;;;;;;;0.80;0.80;;;6.80;99.90;;;;;;5126598;27;20227;-66
2023/02/04 01:13:35;;;;;;;1.42;1.35;;;7.00;99.90;;;;;;5107011;28;20281;-66
2023/02/04 01:16:01;;;;;;;1.35;0.75;;;6.50;99.90;;;;;;5108807;27;20699;-66
2023/02/04 01:18:28;;;;;;;1.08;1.05;;;6.70;99.90;;;;;;5121383;27;20256;-66
2023/02/04 01:20:55;;;;;;;1.17;0.77;;;6.50;99.90;;;;;;5126739;27;20224;-66
2023/02/04 01:23:22;;;;;;;3.00;0.88;;;6.70;99.90;;;;;;5127313;27;20667;-66
2023/02/04 01:25:48;;;;;;;0.75;0.75;;;6.60;99.90;;;;;;5127501;27;20592;-67
2023/02/04 01:28:17;;;;;;;3.60;0.68;;;6.70;99.90;;;;;;5126304;27;20654;-66
2023/02/04 01:30:43;;;;;;;0.55;0.50;;;6.70;99.90;;;;;;5126731;27;20224;-66
2023/02/04 01:33:10;;;;;;;0.40;0.40;;;6.60;99.90;;;;;;5126482;27;20204;-66
2023/02/04 01:35:37;;;;;;;0.30;0.28;;;6.70;99.90;;;;;;5126472;27;20424;-66
2023/02/04 01:38:04;;;;;;;0.90;0.57;;;6.60;99.90;;;;;;5119697;27;20226;-66
2023/02/04 01:40:32;;;;;;;0.47;0.30;;;7.10;99.90;;;;;;5116330;27;20225;-67
2023/02/04 01:43:00;;;;;;;0.30;0.28;;;6.60;99.90;;;;;;5127895;27;20296;-66
2023/02/04 01:45:29;;;;;;;0.50;0.30;;;6.60;99.90;;;;;;5127014;27;20338;-66
2023/02/04 01:47:56;;;;;;;0.40;0.38;;;6.30;99.90;;;;;;5127392;27;20189;-66
2023/02/04 01:50:23;;;;;;;0.60;0.60;;;6.40;99.90;;;;;;5126290;28;20212;-66
2023/02/04 01:52:50;;;;;;;0.40;0.40;;;6.50;99.90;;;;;;5123580;28;20192;-67
2023/02/04 01:55:19;;;;;;;0.50;0.40;;;6.30;99.90;;;;;;5106238;28;20202;-66
2023/02/04 01:57:47;;;;;;;0.30;0.22;;;6.10;99.90;;;;;;5127065;28;20222;-66
2023/02/04 02:00:17;;;;;;;0.73;0.73;;;6.20;99.90;;;;;;5126541;28;21468;-66
2023/02/04 02:02:49;;;;;;;0.30;0.30;;;6.20;99.90;;;;;;5129729;27;20193;-66
2023/02/04 02:05:19;;;;;;;0.30;0.20;;;6.20;99.90;;;;;;5131500;27;20189;-66
2023/02/04 02:07:46;;;;;;;0.70;0.65;;;6.10;99.90;;;;;;5130699;27;20201;-66
2023/02/04 02:10:14;;;;;;;0.30;0.30;;;6.10;99.90;;;;;;5130422;27;20193;-66
2023/02/04 02:12:42;;;;;;;0.60;0.40;;;6.00;99.90;;;;;;5126758;27;20204;-66
2023/02/04 02:15:10;;;;;;;0.30;0.20;;;5.90;99.90;;;;;;5131017;27;20193;-66
2023/02/04 02:17:38;;;;;;;0.40;0.30;;;5.90;99.90;;;;;;5130834;27;20332;-66
2023/02/04 02:20:09;;;;;;;1.10;0.35;;;5.90;99.90;;;;;;5130050;27;20235;-66
2023/02/04 02:22:47;;;;;;;1.15;0.65;;;5.80;99.90;;;;;;5130829;27;20889;-66
2023/02/04 02:25:16;;;;;;;0.30;0.20;;;5.80;99.90;;;;;;5130782;27;20636;-66
2023/02/04 02:27:45;;;;;;;0.65;0.65;;;5.80;99.90;;;;;;5125004;27;20221;-66
2023/02/04 02:30:16;;;;;;;0.40;0.40;;;5.80;99.90;;;;;;5110156;28;20740;-66
2023/02/04 02:32:44;;;;;;;0.30;0.30;;;6.40;99.90;;;;;;5113061;27;20196;-66
2023/02/04 02:35:11;;;;;;;0.40;0.40;;;5.80;99.90;;;;;;5131005;27;20268;-66
2023/02/04 02:37:39;;;;;;;0.40;0.30;;;5.70;99.90;;;;;;5128513;27;20228;-66
2023/02/04 02:40:08;;;;;;;0.50;0.30;;;5.70;99.90;;;;;;5118221;27;20597;-66
2023/02/04 02:42:37;;;;;;;2.05;0.82;;;5.70;99.90;;;;;;5131296;27;20547;-66
2023/02/04 02:45:11;;;;;;;0.30;0.20;;;5.70;99.90;;;;;;5130859;27;20554;-66
2023/02/04 02:47:39;;;;;;;0.30;0.20;;;5.70;99.90;;;;;;5130334;27;20205;-66
2023/02/04 02:50:07;;;;;;;0.40;0.32;;;5.60;99.90;;;;;;5120245;27;20679;-66
2023/02/04 02:52:35;;;;;;;0.40;0.20;;;5.60;99.90;;;;;;5111188;27;20190;-66
2023/02/04 02:55:03;;;;;;;0.70;0.47;;;5.60;99.90;;;;;;5110770;28;20213;-66
2023/02/04 02:57:30;;;;;;;0.30;0.30;;;5.60;99.90;;;;;;5111626;27;20222;-66
2023/02/04 02:59:59;;;;;;;0.30;0.20;;;5.60;99.90;;;;;;5109941;27;20198;-66
2023/02/04 03:02:26;;;;;;;0.85;0.40;;;5.50;99.90;;;;;;5123539;27;20221;-66
2023/02/04 03:04:59;;;;;;;0.30;0.20;;;5.50;99.90;;;;;;5130860;27;20200;-66
2023/02/04 03:07:26;;;;;;;0.40;0.30;;;5.50;99.90;;;;;;5130481;27;20221;-66
2023/02/04 03:09:53;;;;;;;0.82;0.73;;;5.30;99.90;;;;;;5130275;27;20242;-66
2023/02/04 03:12:20;;;;;;;0.38;0.30;;;5.40;99.90;;;;;;5129893;27;20225;-66
2023/02/04 03:14:47;;;;;;;0.30;0.20;;;5.50;99.90;;;;;;5129862;27;20254;-66
2023/02/04 03:17:16;;;;;;;0.40;0.35;;;5.60;99.90;;;;;;5129957;27;20213;-66
2023/02/04 03:19:44;;;;;;;0.88;0.43;;;5.70;99.90;;;;;;5119616;27;20196;-66
2023/02/04 03:22:12;;;;;;;0.30;0.20;;;5.50;99.90;;;;;;5126973;27;20773;-66
2023/02/04 03:24:39;;;;;;;0.40;0.38;;;5.60;99.90;;;;;;5130482;27;20208;-68
2023/02/04 03:27:07;;;;;;;0.30;0.20;;;5.50;99.90;;;;;;5130468;27;20242;-68
2023/02/04 03:29:42;;;;;;;0.98;0.40;;;5.30;99.90;;;;;;5129597;27;20217;-66
2023/02/04 03:32:10;;;;;;;0.40;0.40;;;5.50;99.90;;;;;;5130325;27;20239;-66
2023/02/04 03:34:39;;;;;;;1.30;0.30;;;5.50;99.90;;;;;;5130523;27;20220;-66
2023/02/04 03:37:07;;;;;;;0.45;0.45;;;5.60;99.90;;;;;;5126235;27;20312;-67
2023/02/04 03:39:34;;;;;;;0.30;0.25;;;5.50;99.90;;;;;;5115766;27;20221;-66
2023/02/04 03:42:01;;;;;;;0.43;0.43;;;5.50;99.90;;;;;;5130067;27;20258;-66
2023/02/04 03:44:28;;;;;;;0.60;0.32;;;5.50;99.90;;;;;;5130528;27;20599;-66
2023/02/04 03:46:58;;;;;;;0.30;0.20;;;5.50;99.90;;;;;;5111669;27;20228;-66
2023/02/04 03:49:27;;;;;;;0.45;0.45;;;5.50;99.90;;;;;;5128430;27;20213;-66
2023/02/04 03:51:56;;;;;;;0.65;0.43;;;5.50;99.90;;;;;;5129396;27;20270;-66
2023/02/04 03:54:23;;;;;;;0.40;0.40;;;5.70;99.90;;;;;;5129863;27;20675;-66
2023/02/04 03:56:50;;;;;;;0.30;0.20;;;5.50;99.90;;;;;;5129740;27;20213;-66
2023/02/04 03:59:18;;;;;;;0.90;0.90;;;5.50;99.90;;;;;;5113634;27;20726;-66
2023/02/04 04:01:46;;;;;;;0.93;0.77;;;5.40;99.90;;;;;;5129292;27;20722;-66
2023/02/04 04:04:14;;;;;;;0.52;0.35;;;5.40;99.90;;;;;;5129331;27;20201;-67
2023/02/04 04:06:41;;;;;;;2.60;2.17;;;5.50;99.90;;;;;;5129733;27;20235;-66
2023/02/04 04:09:09;;;;;;;2.35;1.13;;;5.50;99.90;;;;;;5128852;27;20197;-67
2023/02/04 04:11:36;;;;;;;0.73;0.30;;;5.50;99.90;;;;;;5129185;27;20304;-66
2023/02/04 04:14:03;;;;;;;0.93;0.60;;;5.40;99.90;;;;;;5129977;27;20201;-66
2023/02/04 04:16:30;;;;;;;0.30;0.20;;;5.40;99.90;;;;;;5129282;27;20290;-66
2023/02/04 04:18:57;;;;;;;0.30;0.20;;;5.40;99.90;;;;;;5127788;27;20244;-66
2023/02/04 04:21:23;;;;;;;0.73;0.40;;;5.50;99.90;;;;;;5129133;27;20312;-66
2023/02/04 04:23:50;;;;;;;1.30;1.20;;;5.50;99.90;;;;;;5129880;27;20711;-66
2023/02/04 04:26:18;;;;;;;0.40;0.40;;;5.50;99.90;;;;;;5128527;27;20691;-66
2023/02/04 04:28:45;;;;;;;0.38;0.28;;;5.50;99.90;;;;;;5128586;27;20288;-66
2023/02/04 04:31:12;;;;;;;0.43;0.30;;;5.50;99.90;;;;;;5126955;27;20725;-67
2023/02/04 04:33:39;;;;;;;0.50;0.50;;;5.40;99.90;;;;;;5108306;28;20205;-66
2023/02/04 04:36:07;;;;;;;0.55;0.40;;;5.50;99.90;;;;;;5125159;27;20226;-66
2023/02/04 04:38:34;;;;;;;0.30;0.20;;;;;;;;;;5128354;27;20221;-66
2023/02/04 04:41:01;;;;;;;0.88;0.30;;;5.50;99.90;;;;;;5117724;27;20304;-66
2023/02/04 04:43:29;;;;;;;0.98;0.88;;;5.50;99.90;;;;;;5108676;28;20208;-66
2023/02/04 04:45:56;;;;;;;1.50;0.63;;;;;;;;;;5116816;27;20228;-66
2023/02/04 04:48:24;;;;;;;0.75;0.70;;;5.50;99.90;;;;;;5128091;27;20198;-66
2023/02/04 04:50:51;;;;;;;0.30;0.30;;;5.50;99.90;;;;;;5116328;27;20252;-66
2023/02/04 04:53:17;;;;;;;0.50;0.35;;;5.40;99.90;;;;;;5108499;27;20201;-66
2023/02/04 04:55:44;;;;;;;0.40;0.40;;;5.40;99.90;;;;;;5108044;28;20703;-66
2023/02/04 04:58:11;;;;;;;1.52;0.70;;;5.40;99.90;;;;;;5108593;27;20707;-66
2023/02/04 05:00:40;;;;;;;0.40;0.40;;;5.40;99.90;;;;;;5107737;28;20665;-66
2023/02/04 05:03:07;;;;;;;1.10;0.40;;;5.50;99.90;;;;;;5114410;27;20204;-66
2023/02/04 05:05:38;;;;;;;1.27;0.90;;;5.40;99.90;;;;;;5128754;27;20300;-66
2023/02/04 05:08:05;;;;;;;0.85;0.70;;;5.40;99.90;;;;;;5127616;27;20197;-66
2023/02/04 05:10:32;;;;;;;1.10;1.10;;;5.40;99.90;;;;;;5115878;27;20271;-66
2023/02/04 05:12:59;;;;;;;1.40;1.30;;;5.60;99.90;;;;;;5122478;27;20306;-67
2023/02/04 05:15:26;;;;;;;0.70;0.55;;;5.40;99.90;;;;;;5128663;27;20239;-66
2023/02/04 05:17:54;;;;;;;0.85;0.85;;;5.40;99.90;;;;;;5111629;27;20471;-66
2023/02/04 05:20:21;;;;;;;0.30;0.30;;;5.50;99.90;;;;;;5122282;27;20312;-66
2023/02/04 05:22:47;;;;;;;4.43;1.30;;;5.40;99.90;;;;;;5128191;27;20197;-66
2023/02/04 05:25:15;;;;;;;0.50;0.50;;;5.30;99.90;;;;;;5128456;27;20200;-66
2023/02/04 05:27:42;;;;;;;0.52;0.52;;;5.00;99.90;;;;;;5128209;27;20227;-66
2023/02/04 05:30:10;;;;;;;0.30;0.30;;;5.40;99.90;;;;;;5127161;27;20285;-67
2023/02/04 05:32:37;;;;;;;0.70;0.70;;;5.30;99.90;;;;;;5126452;27;20201;-66
2023/02/04 05:35:06;;;;;;;0.98;0.65;;;5.30;99.90;;;;;;5128010;27;20204;-66
2023/02/04 05:37:33;;;;;;;0.98;0.88;;;5.30;99.90;;;;;;5123418;27;20675;-66
2023/02/04 05:40:00;;;;;;;0.30;0.22;;;5.50;99.90;;;;;;5122832;27;20248;-67
2023/02/04 05:42:26;;;;;;;1.15;1.05;;;5.30;99.90;;;;;;5113517;27;20657;-66
2023/02/04 05:44:53;;;;;;;1.15;0.70;;;5.40;99.90;;;;;;5110096;28;20272;-66
2023/02/04 05:47:20;;;;;;;1.77;1.17;;;5.40;99.90;;;;;;5127617;27;20217;-66
2023/02/04 05:49:47;;;;;;;0.77;0.50;;;5.40;99.90;;;;;;5127159;27;20205;-66
2023/02/04 05:52:15;;;;;;;0.40;0.32;;;5.30;99.90;;;;;;5128022;28;20231;-66
2023/02/04 05:54:42;;;;;;;0.40;0.30;;;5.30;99.90;;;;;;5127412;28;20208;-67
2023/02/04 05:57:08;;;;;;;0.50;0.50;;;5.30;99.90;;;;;;5127857;28;20318;-66
2023/02/04 05:59:35;;;;;;;0.40;0.40;;;5.30;99.90;;;;;;5127396;28;20589;-66
2023/02/04 06:02:02;;;;;;;2.03;1.02;;;5.30;99.90;;;;;;5127972;28;20223;-66
2023/02/04 06:04:29;;;;;;;0.75;0.75;;;5.20;99.90;;;;;;5127883;28;20208;-66
2023/02/04 06:06:55;;;;;;;1.27;0.73;;;5.30;99.90;;;;;;5127568;28;20220;-66
2023/02/04 06:09:23;;;;;;;0.88;0.88;;;5.20;99.90;;;;;;5126204;28;20204;-66
2023/02/04 06:11:50;;;;;;;1.00;1.00;;;5.20;99.90;;;;;;5127715;28;20744;-66
2023/02/04 06:14:17;;;;;;;1.58;1.02;;;5.20;99.90;;;;;;5127527;28;20193;-66
2023/02/04 06:16:44;;;;;;;0.40;0.40;;;5.20;99.90;;;;;;5127688;28;20228;-66
2023/02/04 06:19:12;;;;;;;1.50;0.73;;;;;;;;;;5126364;28;20224;-66
2023/02/04 06:21:39;;;;;;;1.02;0.93;;;4.80;99.90;;;;;;5125921;28;20209;-67
2023/02/04 06:24:06;;;;;;;0.80;0.70;;;5.10;99.90;;;;;;5128104;28;20212;-67
2023/02/04 06:26:34;;;;;;;0.90;0.88;;;5.00;99.90;;;;;;5127547;28;20221;-66
2023/02/04 06:29:01;;;;;;;0.90;0.90;;;5.20;99.90;;;;;;5127070;28;20220;-66
2023/02/04 06:31:28;;;;;;;1.90;1.80;;;5.00;99.90;;;;;;5117345;28;20245;-66
2023/02/04 06:33:55;;;;;;;0.55;0.55;;;5.00;99.90;;;;;;5107042;28;20206;-66
2023/02/04 06:36:21;;;;;;;2.25;2.00;;;5.10;99.90;;;;;;5106674;28;20242;-66
2023/02/04 06:38:48;;;;;;;0.68;0.65;;;5.00;99.90;;;;;;5123599;28;20225;-66
2023/02/04 06:41:15;;;;;;;2.38;0.90;;;4.90;99.90;;;;;;5126755;28;20226;-66
2023/02/04 06:43:43;;;;;;;1.58;1.48;;;4.90;99.90;;;;;;5127736;28;20208;-66
2023/02/04 06:46:10;;;;;;;1.95;0.85;;;4.90;99.90;;;;;;5127029;28;20339;-66
2023/02/04 06:48:37;;;;;;;1.55;1.27;;;4.90;99.90;;;;;;5129645;27;20193;-66
2023/02/04 06:51:03;;;;;;;0.93;0.60;;;5.00;99.90;;;;;;5130373;27;20229;-67
2023/02/04 06:53:30;;;;;;;0.77;0.47;;;4.90;99.90;;;;;;5122128;27;20688;-66
2023/02/04 06:55:57;;;;;;;1.33;1.23;;;5.00;99.90;;;;;;5117790;27;20213;-66
2023/02/04 06:58:24;;;;;;;1.52;1.10;;;5.00;99.90;;;;;;5130220;27;20201;-66
2023/02/04 07:00:52;;;;;;;1.52;1.33;;;5.00;99.90;;;;;;5130970;27;20217;-66
2023/02/04 07:03:19;;;;;;;2.13;1.88;;;4.90;99.90;;;;;;5131311;27;20193;-67
2023/02/04 07:05:45;;;;;;;0.70;0.70;;;5.70;99.90;;;;;;5130213;27;20800;-66
2023/02/04 07:08:12;;;;;;;2.05;1.67;;;5.00;99.90;;;;;;5130789;27;20276;-66
2023/02/04 07:10:39;;;;;;;0.82;0.82;;;5.00;99.90;;;;;;5130200;27;20209;-66
2023/02/04 07:13:06;;;;;;;1.10;0.93;;;5.10;99.90;;;;;;5130876;27;20601;-66
2023/02/04 07:15:33;;;;;;;2.13;1.95;;;5.00;99.90;;;;;;5130467;27;20645;-66
2023/02/04 07:18:01;;;;;;;1.50;1.10;;;5.10;99.90;;;;;;5129877;27;20197;-67
2023/02/04 07:20:27;;;;;;;11.45;1.67;;;4.90;99.90;;;;;;5120160;27;20236;-66
2023/02/04 07:22:54;;;;;;;0.95;0.95;;;5.00;99.90;;;;;;5112772;27;20198;-66
2023/02/04 07:25:22;;;;;;;1.08;1.02;;;5.00;99.90;;;;;;5110256;28;20212;-66
2023/02/04 07:27:49;;;;;;;1.30;1.25;;;5.00;99.90;;;;;;5117743;27;20278;-66
2023/02/04 07:30:16;;;;;;;0.60;0.60;;;5.00;99.90;;;;;;5109557;28;20190;-66
2023/02/04 07:32:42;;;;;;;2.45;1.30;;;4.90;99.90;;;;;;5109093;27;20204;-66
2023/02/04 07:35:11;;;;;;;0.82;0.82;;;5.00;99.90;;;;;;5109603;28;20209;-67
2023/02/04 07:37:38;;;;;;;1.10;0.80;;;5.00;99.90;;;;;;5118062;27;20277;-66
2023/02/04 07:40:06;;;;;;;1.50;1.13;;;5.00;99.90;;;;;;5121336;27;20866;-67
2023/02/04 07:42:33;;;;;;;0.93;0.93;;;5.10;99.90;;;;;;5130348;27;20534;-66
2023/02/04 07:44:59;;;;;;;2.25;1.67;;;5.00;99.90;;;;;;5130203;27;20197;-66
2023/02/04 07:47:26;;;;;;;0.90;0.82;;;5.10;99.90;;;;;;5129278;27;20797;-66
2023/02/04 07:49:55;;;;;;;0.50;0.50;;;5.10;99.90;;;;;;5129157;27;20288;-66
2023/02/04 07:52:23;;;;;;;3.17;1.80;;;5.10;99.90;;;;;;5129497;27;20838;-67
2023/02/04 07:54:51;;;;;;;3.75;1.48;;;5.00;99.90;;;;;;5111867;27;21219;-67
2023/02/04 07:57:18;;;;;;;3.38;2.33;;;5.00;99.90;;;;;;5129944;27;20221;-66
2023/02/04 07:59:45;;;;;;;1.25;1.15;;;5.00;99.90;;;;;;5108615;27;20719;-66
2023/02/04 08:02:11;;;;;;;1.73;1.55;;;5.00;99.90;;;;;;5110634;27;20225;-66
2023/02/04 08:04:39;;;;;;;0.45;0.45;;;5.00;99.90;;;;;;5127200;27;20201;-66
2023/02/04 08:07:06;;;;;;;2.47;1.35;;;5.10;99.90;;;;;;5129513;27;20221;-66
2023/02/04 08:09:34;;;;;;;2.17;1.88;;;5.10;99.90;;;;;;5129639;27;20651;-67
2023/02/04 08:12:00;;;;;;;1.20;1.20;;;5.10;99.90;;;;;;5129686;27;20217;-66
2023/02/04 08:14:27;;;;;;;1.20;0.65;;;5.10;99.90;;;;;;5129781;27;20193;-66
2023/02/04 08:16:54;;;;;;;0.85;0.85;;;5.10;99.90;;;;;;5129774;27;20227;-66
2023/02/04 08:19:21;;;;;;;0.85;0.85;;;5.10;99.90;;;;;;5106826;28;20218;-67
2023/02/04 08:21:48;;;;;;;0.73;0.65;;;5.20;99.90;;;;;;5129004;27;20221;-66
2023/02/04 08:24:16;;;;;;;2.67;1.63;;;5.20;99.90;;;;;;5129337;27;20677;-66
2023/02/04 08:26:44;;;;;;;1.95;1.20;;;5.10;99.90;;;;;;5128495;27;20224;-67
2023/02/04 08:29:11;;;;;;;7.35;1.35;;;5.30;99.90;;;;;;5117055;27;20198;-66
2023/02/04 08:31:39;;;;;;;0.63;0.60;;;5.20;99.90;;;;;;5120232;27;20223;-66
2023/02/04 08:34:06;;;;;;;1.85;1.13;;;5.20;99.90;;;;;;5128489;27;20204;-66
2023/02/04 08:36:33;;;;;;;6.13;2.30;;;5.30;99.90;;;;;;5128820;27;20233;-66
2023/02/04 08:39:00;;;;;;;7.97;2.55;;;5.30;99.90;;;;;;5113895;27;20197;-66
2023/02/04 08:41:27;;;;;;;1.05;0.95;;;5.30;99.90;;;;;;5122017;27;20229;-66
2023/02/04 08:43:55;;;;;;;1.30;1.23;;;5.00;99.90;;;;;;5128727;27;20204;-66
2023/02/04 08:46:22;;;;;;;1.50;1.00;;;5.30;99.90;;;;;;5128822;27;20241;-66
2023/02/04 08:48:48;;;;;;;2.08;1.38;;;5.20;99.90;;;;;;5126822;27;20189;-66
2023/02/04 08:51:15;;;;;;;2.00;1.38;;;5.30;99.90;;;;;;5112720;27;20225;-66
2023/02/04 08:53:42;;;;;;;3.35;1.30;;;5.30;99.90;;;;;;5127343;27;20575;-66
2023/02/04 08:56:09;;;;;;;8.13;2.38;;;5.20;99.90;;;;;;5107824;28;20759;-67
2023/02/04 08:58:36;;;;;;;2.80;2.33;;;5.30;99.90;;;;;;5115271;27;20559;-66
2023/02/04 09:01:06;;;;;;;0.65;0.63;;;5.30;99.90;;;;;;5126421;27;20762;-66
2023/02/04 09:03:32;;;;;;;0.63;0.57;;;5.30;99.90;;;;;;5108537;28;20210;-66
2023/02/04 09:05:59;;;;;;;1.33;1.23;;;5.00;99.90;;;;;;5117819;27;20224;-66
2023/02/04 09:08:26;;;;;;;3.85;1.13;;;5.30;99.90;;;;;;5127461;27;20193;-67
2023/02/04 09:10:52;;;;;;;3.13;0.88;;;5.40;99.90;;;;;;5127730;27;20229;-66
2023/02/04 09:13:19;;;;;;;2.13;1.75;;;5.50;99.90;;;;;;5128750;27;20235;-66
2023/02/04 09:15:46;;;;;;;3.35;1.33;;;5.40;99.90;;;;;;5126524;27;20354;-66
2023/02/04 09:18:15;;;;;;;0.93;0.82;;;5.60;99.90;;;;;;5120341;27;20645;-66
2023/02/04 09:20:42;;;;;;;2.00;1.90;;;5.40;99.90;;;;;;5125711;27;20240;-66
2023/02/04 09:23:11;;;;;;;1.50;0.75;;;;;;;;;;5126871;27;20219;-66
2023/02/04 09:25:38;;;;;;;0.93;0.77;;;5.60;99.90;;;;;;5128138;27;20560;-66
2023/02/04 09:28:05;;;;;;;5.47;2.72;;;5.50;99.90;;;;;;5127429;27;20749;-66
2023/02/04 09:30:32;;;;;;;0.45;0.45;;;5.60;99.90;;;;;;5127964;27;20218;-66
2023/02/04 09:32:59;;;;;;;2.47;2.13;;;6.10;99.90;;;;;;5126256;27;20742;-68
2023/02/04 09:35:27;;;;;;;9.77;1.85;;;5.70;99.90;;;;;;5126332;27;20304;-68
2023/02/04 09:37:54;;;;;;;2.95;1.92;;;5.90;99.90;;;;;;5120573;27;20750;-67
2023/02/04 09:40:21;;;;;;;3.10;1.80;;;5.80;99.90;;;;;;5125830;27;20300;-67
2023/02/04 09:42:49;;;;;;;2.03;1.65;;;6.10;99.90;;;;;;5108723;27;20672;-68
2023/02/04 09:45:18;;;;;;;1.50;1.40;;;6.20;99.90;;;;;;5118287;27;20194;-67
2023/02/04 09:47:45;;;;;;;6.18;2.45;;;6.50;99.90;;;;;;5127383;27;20746;-68
2023/02/04 09:50:15;;;;;;;3.42;2.53;;;6.30;99.90;;;;;;5125853;27;20197;-67
2023/02/04 09:52:44;;;;;;;4.13;1.38;;;6.30;99.90;;;;;;5123349;28;20202;-68
2023/02/04 09:55:14;;;;;;;2.58;1.20;;;6.10;99.90;;;;;;5126532;28;20197;-67
2023/02/04 09:57:41;;;;;;;2.58;2.30;;;6.10;99.90;;;;;;5122424;28;20196;-67
2023/02/04 10:00:15;;;;;;;2.15;1.23;;;6.00;99.90;;;;;;5105642;28;20214;-66
2023/02/04 10:02:43;;;;;;;3.88;1.05;;;6.10;99.90;;;;;;5119663;28;20221;-69
2023/02/04 10:05:14;;;;;;;0.95;0.82;;;6.30;99.90;;;;;;5116730;28;20760;-67
2023/02/04 10:07:41;;;;;;;1.45;1.35;;;6.30;99.90;;;;;;5128163;28;20211;-67
2023/02/04 10:10:16;;;;;;;0.98;0.70;;;6.30;99.90;;;;;;5126964;28;20282;-67
2023/02/04 10:12:42;;;;;;;1.40;1.30;;;6.20;99.90;;;;;;5112626;28;20189;-68
2023/02/04 10:15:12;;;;;;;4.05;2.95;;;6.10;99.90;;;;;;5106678;28;20563;-67
2023/02/04 10:17:39;;;;;;;1.35;0.70;;;6.30;99.90;;;;;;5123427;28;20219;-67
2023/02/04 10:20:11;;;;;;;0.90;0.90;;;6.40;99.90;;;;;;5119407;28;20206;-67
2023/02/04 10:22:39;;;;;;;0.50;0.50;;;6.70;99.90;;;;;;5129043;27;20211;-67
2023/02/04 10:25:13;;;;;;;0.70;0.60;;;6.80;99.90;;;;;;5131766;27;20189;-69
2023/02/04 10:27:48;;;;;;;0.30;0.20;;;7.00;99.90;;;;;;5131393;27;20201;-68
2023/02/04 10:30:20;;;;;;;1.50;1.40;;;7.10;99.90;;;;;;5131488;27;20205;-69
2023/02/04 10:32:47;;;;;;;36.22;1.85;;;7.20;99.90;;;;;;5124017;27;20228;-67
2023/02/04 10:35:16;;;;;;;2.97;0.90;;;7.30;99.90;;;;;;5131928;27;20578;-68
2023/02/04 10:37:44;;;;;;;0.88;0.60;;;7.50;99.90;;;;;;5125234;27;20198;-69
2023/02/04 10:40:29;;;;;;;0.93;0.50;;;7.00;99.90;;;;;;5122036;27;20213;-69
2023/02/04 10:42:57;;;;;;;1.85;0.60;;;6.80;99.90;;;;;;5130868;27;20627;-68
2023/02/04 10:45:25;;;;;;;7.13;1.55;;;6.80;99.90;;;;;;5131319;27;20214;-68
2023/02/04 10:47:53;;;;;;;0.75;0.40;;;6.50;99.90;;;;;;5131405;27;20197;-68
2023/02/04 10:50:23;;;;;;;1.27;1.17;;;6.60;99.90;;;;;;5127452;27;20202;-68
2023/02/04 10:54:28;;;;;;;1.17;1.08;;;6.50;99.90;;;;;;5111518;27;20642;-68
2023/02/04 10:55:43;;;;;;;2.40;1.00;;;6.50;99.90;;;;;;5110724;28;20290;-69
2023/02/04 10:58:13;;;;;;;2.13;1.05;;;6.60;99.90;;;;;;5116912;27;20746;-68
2023/02/04 11:00:41;;;;;;;3.03;1.13;;;6.60;99.90;;;;;;5114235;27;20566;-68
2023/02/04 11:03:12;;;;;;;0.70;0.70;;;6.70;99.90;;;;;;5130382;27;21182;-69
2023/02/04 11:05:38;;;;;;;1.43;1.33;;;6.70;99.90;;;;;;5131324;27;20655;-68
2023/02/04 11:08:20;;;;;;;3.10;0.70;;;6.70;99.90;;;;;;5130159;27;20995;-68
2023/02/04 11:10:50;;;;;;;0.80;0.70;;;6.50;99.90;;;;;;5129867;27;20219;-68
2023/02/04 11:13:23;;;;;;;2.30;1.20;;;6.50;99.90;;;;;;5131264;27;20623;-69
2023/02/04 11:16:06;;;;;;;1.13;0.87;;;6.60;99.90;;;;;;5114862;27;20638;-69
2023/02/04 11:18:45;;;;;;;1.17;1.08;;;6.70;99.90;;;;;;5122822;27;20630;-68
2023/02/04 11:21:21;;;;;;;0.80;0.50;;;7.10;99.90;;;;;;5119912;27;20221;-68
2023/02/04 11:23:48;;;;;;;2.63;1.03;;;7.20;99.90;;;;;;5115789;27;21049;-70
2023/02/04 11:26:21;;;;;;;3.15;1.48;;;7.20;99.90;;;;;;5130083;27;21066;-69
2023/02/04 11:29:08;;;;;;;3.03;1.83;;;7.30;99.70;;;;;;5130276;27;20209;-69
2023/02/04 11:31:56;;;;;;;0.67;0.60;;;7.20;99.20;;;;;;5130299;27;21022;-68
2023/02/04 11:34:43;;;;;;;0.40;0.30;;;7.10;99.90;;;;;;5128815;27;20652;-69
2023/02/04 11:37:35;;;;;;;2.67;1.43;;;7.10;99.90;;;;;;5126454;27;21232;-68
2023/02/04 11:40:08;;;;;;;2.67;0.57;;;6.70;99.90;;;;;;5120508;27;20614;-69
2023/02/04 11:42:42;;;;;;;2.73;0.73;;;6.60;98.20;;;;;;5126580;27;20206;-68
2023/02/04 11:45:15;;;;;;;1.37;0.97;;;6.90;99.90;;;;;;5130330;27;20731;-69
2023/02/04 11:47:43;;;;;;;2.40;1.00;;;6.50;99.90;;;;;;5130563;27;20622;-68
2023/02/04 11:50:17;;;;;;;0.73;0.73;;;6.30;99.90;;;;;;5129275;27;20629;-68
2023/02/04 11:52:44;;;;;;;0.63;0.30;;;6.30;99.90;;;;;;5127612;27;20696;-68
2023/02/04 11:55:12;;;;;;;0.70;0.40;;;6.30;99.90;;;;;;5109142;28;20616;-68
2023/02/04 11:57:41;;;;;;;0.80;0.57;;;5.90;99.90;;;;;;5121422;27;20738;-68
2023/02/04 12:00:14;;;;;;;0.50;0.45;;;6.50;99.90;;;;;;5129423;27;20205;-69
2023/02/04 12:02:44;;;;;;;0.63;0.63;;;5.80;99.90;;;;;;5129036;27;20524;-68
2023/02/04 12:05:13;;;;;;;4.78;1.33;;;6.00;99.90;;;;;;5129895;27;20202;-68
2023/02/04 12:07:40;;;;;;;3.63;0.95;;;6.00;99.80;;;;;;5129043;27;20192;-68
2023/02/04 12:10:25;;;;;;;0.80;0.60;;;6.10;99.90;;;;;;5127850;27;20203;-68
2023/02/04 12:12:56;;;;;;;0.82;0.75;;;6.10;99.90;;;;;;5116606;27;20250;-68
2023/02/04 12:15:31;;;;;;;2.15;0.77;;;6.20;99.90;;;;;;5129693;27;20586;-68
2023/02/04 12:18:03;;;;;;;0.60;0.47;;;6.20;99.80;;;;;;5128351;27;20192;-67
2023/02/04 12:20:30;;;;;;;9.25;1.40;;;6.30;99.90;;;;;;5121069;27;20758;-68
2023/02/04 12:22:57;;;;;;;1.60;0.90;;;6.40;99.80;;;;;;5129151;27;20734;-69
2023/02/04 12:25:25;;;;;;;7.88;1.25;;;6.40;99.90;;;;;;5129025;27;20657;-68
2023/02/04 12:27:54;;;;;;;0.85;0.85;;;6.50;99.50;;;;;;5129738;27;20535;-68
2023/02/04 12:30:21;;;;;;;0.70;0.70;;;6.90;99.90;;;;;;5119673;27;20221;-68
2023/02/04 12:32:48;;;;;;;0.70;0.70;;;6.80;99.80;;;;;;5116665;27;20200;-68
2023/02/04 12:35:16;;;;;;;2.43;0.57;;;7.00;99.90;;;;;;5109376;27;20623;-69
2023/02/04 12:37:43;;;;;;;0.97;0.80;;;7.10;99.30;;;;;;5120858;27;21197;-68
2023/02/04 12:40:14;;;;;;;2.33;0.63;;;7.00;99.90;;;;;;5120419;27;20960;-69
2023/02/04 12:42:41;;;;;;;0.57;0.57;;;7.10;98.40;;;;;;5125875;27;20631;-69
2023/02/04 12:45:11;;;;;;;1.73;1.30;;;7.30;99.50;;;;;;5128222;27;20631;-67
2023/02/04 12:47:38;;;;;;;3.00;0.90;;;7.30;98.50;;;;;;5129156;27;20728;-68
2023/02/04 12:50:06;;;;;;;0.77;0.77;;;7.60;99.90;;;;;;5127342;27;20655;-69
2023/02/04 12:52:33;;;;;;;0.30;0.30;;;7.40;99.50;;;;;;5109526;28;20638;-68
2023/02/04 12:55:00;;;;;;;0.80;0.43;;;7.40;98.30;;;;;;5127823;27;20726;-68
2023/02/04 12:57:27;;;;;;;0.67;0.37;;;7.40;98.70;;;;;;5108357;28;21231;-69
2023/02/04 12:59:56;;;;;;;1.80;1.60;;;7.20;97.00;;;;;;5107253;27;20627;-68
2023/02/04 13:02:24;;;;;;;1.17;1.07;;;7.10;97.30;;;;;;5116695;27;20702;-68
2023/02/04 13:04:51;;;;;;;0.33;0.33;;;7.10;98.30;;;;;;5116271;27;20631;-68